Time;durP1;ratioP1;P1;durP2;ratioP2;P2;SDS_P1;SDS_P2;PMS_P1;PMS_P2;Temp;Humidity;BMP_temperature;BMP_pressure;BME280_temperature;BME280_humidity;BME280_pressure;Samples;Min_cycle;Max_cycle;Signal;HPM_P1;HPM_P2
2021/12/05 00:17:39;;;;;;;0.63;0.57;;;19.90;41.90;;;23.43;27.98;99449.47;4883546;29;20469;-75
2021/12/05 00:22:17;;;;;;;0.50;0.50;;;19.80;41.90;;;23.45;28.16;99457.34;4895959;29;20493;-75
2021/12/05 00:24:47;;;;;;;0.52;0.52;;;19.80;41.90;;;23.42;28.12;99453.16;4881265;29;20489;-75
2021/12/05 00:27:22;;;;;;;0.93;0.60;;;19.80;41.90;;;23.47;28.13;99460.69;4881325;29;20052;-75
2021/12/05 00:32:31;;;;;;;0.45;0.45;;;19.80;41.90;;;23.49;28.23;99464.91;4881035;29;20052;-75
2021/12/05 00:38:17;;;;;;;0.50;0.50;;;19.80;41.90;;;23.44;28.14;99469.03;4867403;29;20488;-75
2021/12/05 00:41:02;;;;;;;0.57;0.57;;;19.80;41.90;;;23.47;28.02;99480.22;4883175;29;20056;-75
2021/12/05 00:43:56;;;;;;;0.50;0.50;;;19.80;41.90;;;23.50;28.13;99484.41;4882951;29;20045;-75
2021/12/05 00:46:44;;;;;;;0.65;0.50;;;19.80;41.90;;;23.48;27.96;99484.56;4880927;29;20057;-75
2021/12/05 01:03:23;;;;;;;0.60;0.60;;;19.80;41.90;;;23.47;28.05;99500.72;4808231;29;20187;-75
2021/12/05 01:06:17;;;;;;;0.50;0.50;;;19.90;41.90;;;23.46;28.21;99502.56;4809295;29;20062;-75
2021/12/05 01:08:41;;;;;;;0.40;0.40;;;19.90;41.90;;;23.47;28.21;99506.03;4857486;29;20048;-75
2021/12/05 01:14:02;;;;;;;0.50;0.50;;;19.80;41.90;;;23.47;28.10;99514.06;4868085;29;20041;-75
2021/12/05 01:16:30;;;;;;;0.52;0.52;;;19.90;41.90;;;23.47;27.99;99514.91;4855259;29;20067;-75
2021/12/05 01:18:58;;;;;;;0.50;0.50;;;19.90;41.90;;;23.43;27.84;99507.34;4881950;29;20529;-75
2021/12/05 01:21:26;;;;;;;0.60;0.60;;;19.90;41.90;;;23.46;28.15;99518.56;4883722;29;20044;-75
2021/12/05 01:24:05;;;;;;;0.50;0.50;;;19.90;41.90;;;23.45;28.01;99513.38;4900180;29;20452;-75
2021/12/05 01:26:38;;;;;;;0.60;0.60;;;19.80;41.80;;;23.45;27.96;99510.69;4883478;29;20064;-75
2021/12/05 01:29:18;;;;;;;0.60;0.60;;;19.90;41.90;;;23.49;28.13;99522.78;4868110;29;20083;-75
2021/12/05 01:32:01;;;;;;;0.60;0.60;;;19.80;41.90;;;23.47;28.21;99520.25;4868219;29;20112;-75
2021/12/05 01:34:41;;;;;;;0.50;0.50;;;19.80;41.90;;;23.50;28.14;99524.44;4885740;29;20045;-75
2021/12/05 01:37:25;;;;;;;0.57;0.57;;;19.80;41.90;;;23.49;28.04;99533.44;4885088;29;20132;-75
2021/12/05 01:40:19;;;;;;;0.50;0.50;;;19.80;41.90;;;23.48;28.04;99529.91;4869582;29;20056;-75
2021/12/05 01:43:24;;;;;;;0.50;0.50;;;19.90;41.90;;;23.49;28.11;99528.13;4887542;29;20469;-75
2021/12/05 01:51:44;;;;;;;0.50;0.50;;;19.80;41.90;;;23.48;28.31;99540.59;4870204;29;20056;-75
2021/12/05 01:56:57;;;;;;;0.60;0.60;;;19.80;41.80;;;23.47;28.24;99532.72;4882867;29;20049;-75
2021/12/05 01:59:53;;;;;;;0.60;0.60;;;19.90;41.90;;;23.50;28.08;99535.13;4869631;29;20225;-75
2021/12/05 02:08:27;;;;;;;0.60;0.60;;;19.90;41.90;;;23.48;28.03;99542.44;4885084;29;20052;-75
2021/12/05 02:16:36;;;;;;;0.50;0.50;;;19.90;41.90;;;23.46;28.17;99529.22;4884884;29;20045;-75
2021/12/05 02:36:18;;;;;;;0.50;0.50;;;19.80;41.90;;;23.47;28.15;99554.06;4844816;29;20059;-75
2021/12/05 02:43:33;;;;;;;0.60;0.60;;;19.80;41.80;;;23.47;28.13;99570.06;4883271;29;20135;-75
2021/12/05 02:46:02;;;;;;;;;;;19.80;41.90;;;23.57;27.96;99565.59;4883522;29;20434;-75
2021/12/05 02:48:31;;;;;;;0.40;0.40;;;19.90;41.90;;;23.51;27.93;99563.50;4866920;29;19923;-75
2021/12/05 02:51:00;;;;;;;0.60;0.60;;;19.90;41.90;;;23.46;28.05;99563.91;4882826;29;20056;-75
2021/12/05 02:53:37;;;;;;;0.60;0.60;;;19.80;41.90;;;23.51;28.03;99568.00;4866916;29;20049;-75
2021/12/05 02:56:04;;;;;;;0.70;0.70;;;19.80;41.90;;;23.48;27.95;99569.09;4874956;29;20485;-75
2021/12/05 02:58:43;;;;;;;0.50;0.50;;;19.80;41.80;;;23.47;28.18;99570.94;4866355;29;20048;-75
2021/12/05 03:01:27;;;;;;;0.50;0.50;;;19.80;41.80;;;23.48;28.02;99577.94;4882394;29;20078;-75
2021/12/05 03:03:54;;;;;;;0.60;0.50;;;19.80;41.80;;;23.50;27.98;99583.13;4867871;29;20044;-75
2021/12/05 03:06:27;;;;;;;0.57;0.57;;;19.80;41.80;;;23.47;28.13;99572.75;4881766;29;20085;-75
2021/12/05 03:09:09;;;;;;;0.70;0.70;;;19.80;41.80;;;23.47;28.10;99570.94;4881913;29;20063;-75
2021/12/05 03:11:36;;;;;;;0.60;0.60;;;19.80;41.80;;;23.47;28.05;99572.75;4866521;29;20533;-75
2021/12/05 03:14:03;;;;;;;0.60;0.60;;;19.80;41.90;;;23.44;27.92;99571.22;4898615;29;20100;-75
2021/12/05 03:16:33;;;;;;;0.50;0.50;;;19.90;41.90;;;23.47;28.08;99570.06;4881542;29;20068;-75
2021/12/05 03:18:59;;;;;;;0.50;0.50;;;19.80;41.80;;;23.49;27.93;99568.97;4881599;29;20417;-75
2021/12/05 03:21:26;;;;;;;0.47;0.47;;;19.80;41.80;;;23.49;28.11;99582.31;4866559;29;20088;-75
2021/12/05 03:23:54;;;;;;;0.52;0.50;;;19.80;41.90;;;23.45;28.13;99575.56;4881663;29;20044;-75
2021/12/05 03:26:26;;;;;;;0.55;0.55;;;19.80;41.80;;;23.43;28.12;99566.03;4881534;29;20167;-75
2021/12/05 03:28:56;;;;;;;0.47;0.47;;;19.80;41.90;;;23.48;28.08;99577.94;4865247;29;20113;-75
2021/12/05 03:31:27;;;;;;;0.50;0.50;;;19.80;41.80;;;23.49;27.87;99582.31;4882258;29;20168;-75
2021/12/05 03:33:54;;;;;;;0.70;0.70;;;19.80;41.80;;;23.49;28.14;99586.81;4881409;29;20052;-75
2021/12/05 03:36:22;;;;;;;0.50;0.50;;;19.80;41.80;;;23.45;27.92;99583.56;4881469;29;20485;-75
2021/12/05 03:38:48;;;;;;;0.60;0.60;;;19.80;41.90;;;23.46;28.12;99576.41;4881313;29;20056;-75
2021/12/05 03:41:16;;;;;;;0.40;0.40;;;19.80;41.80;;;23.47;28.07;99578.94;4881346;29;20113;-75
2021/12/05 03:43:48;;;;;;;0.40;0.40;;;19.80;41.80;;;23.44;28.04;99583.72;4881567;29;20057;-75
2021/12/05 03:46:14;;;;;;;0.50;0.50;;;19.80;41.80;;;23.46;28.01;99587.91;4881149;29;20071;-75
2021/12/05 03:48:50;;;;;;;0.43;0.43;;;19.80;41.80;;;23.44;28.20;99594.41;4865638;29;20152;-75
2021/12/05 03:51:20;;;;;;;0.50;0.50;;;19.80;41.80;;;23.47;28.05;99605.63;4881680;29;20048;-75
2021/12/05 03:53:48;;;;;;;;;;;19.80;41.80;;;23.58;27.97;99607.28;4881766;29;20051;-75
2021/12/05 03:56:17;;;;;;;0.60;0.60;;;19.80;41.80;;;23.53;28.02;99606.03;4881421;29;20439;-75
2021/12/05 03:58:45;;;;;;;0.65;0.65;;;19.80;41.80;;;23.48;28.04;99609.94;4881082;29;20139;-75
2021/12/05 04:01:12;;;;;;;0.60;0.60;;;19.80;41.90;;;23.47;28.10;99607.41;4865548;29;20052;-75
2021/12/05 04:03:44;;;;;;;0.50;0.50;;;19.80;41.80;;;23.46;28.26;99606.59;4865949;29;20055;-75
2021/12/05 04:06:14;;;;;;;0.50;0.50;;;19.80;41.80;;;23.47;28.22;99607.41;4880794;29;20446;-75
2021/12/05 04:08:41;;;;;;;;;;;19.80;41.80;;;23.57;27.90;99610.94;4866664;29;20048;-75
2021/12/05 04:11:16;;;;;;;0.50;0.50;;;19.80;41.80;;;23.52;27.90;99615.00;4865837;29;19919;-75
2021/12/05 04:13:43;;;;;;;0.70;0.70;;;19.80;41.80;;;23.47;28.01;99613.63;4881349;29;20049;-75
2021/12/05 04:16:10;;;;;;;0.50;0.50;;;19.80;41.90;;;23.49;28.16;99621.50;4865289;29;20378;-75
2021/12/05 04:18:37;;;;;;;0.52;0.52;;;19.80;41.90;;;23.47;28.17;99632.28;4865556;29;20140;-75
2021/12/05 04:21:05;;;;;;;0.60;0.60;;;19.80;41.90;;;23.46;27.95;99630.59;4865467;29;20404;-75
2021/12/05 04:23:31;;;;;;;0.60;0.60;;;19.80;41.80;;;23.43;28.24;99632.72;4880748;29;20049;-75
2021/12/05 04:25:57;;;;;;;0.63;0.63;;;19.80;41.90;;;23.46;28.02;99646.59;4865881;29;20068;-75
2021/12/05 04:28:24;;;;;;;0.65;0.65;;;19.80;41.90;;;23.47;28.12;99652.78;4880646;29;20163;-75
2021/12/05 04:30:51;;;;;;;0.50;0.50;;;19.80;41.90;;;23.45;28.18;99652.06;4864000;29;20413;-75
2021/12/05 04:33:20;;;;;;;0.68;0.68;;;19.80;41.90;;;23.43;28.16;99651.38;4879330;29;20048;-75
2021/12/05 04:35:47;;;;;;;0.73;0.70;;;19.80;41.90;;;23.44;28.17;99661.09;4881024;29;20121;-75
2021/12/05 04:38:13;;;;;;;0.50;0.50;;;19.80;41.80;;;23.43;28.14;99659.38;4878659;29;20080;-75
2021/12/05 04:40:41;;;;;;;0.57;0.57;;;19.80;41.80;;;23.47;27.93;99668.78;4865612;29;20093;-75
2021/12/05 04:43:07;;;;;;;0.50;0.50;;;19.80;41.90;;;23.45;28.15;99668.91;4865280;29;20041;-75
2021/12/05 04:45:36;;;;;;;0.50;0.50;;;19.80;41.90;;;23.45;28.12;99674.25;4865190;29;20493;-75
2021/12/05 04:48:06;;;;;;;0.60;0.60;;;19.80;41.90;;;23.45;27.81;99676.91;4864983;29;20061;-75
2021/12/05 04:50:34;;;;;;;0.60;0.60;;;19.80;41.80;;;23.46;28.23;99675.13;4864997;29;20553;-75
2021/12/05 04:53:00;;;;;;;0.57;0.57;;;19.80;41.90;;;23.47;28.26;99685.66;4880438;29;20055;-75
2021/12/05 04:55:27;;;;;;;0.57;0.57;;;19.80;41.80;;;23.42;28.02;99679.91;4897256;29;20552;-75
2021/12/05 04:57:54;;;;;;;0.60;0.60;;;19.80;41.80;;;23.44;28.10;99683.25;4880463;29;20056;-75
2021/12/05 05:00:29;;;;;;;0.60;0.60;;;19.80;41.90;;;23.43;28.07;99691.41;4880505;29;20103;-75
2021/12/05 05:02:57;;;;;;;0.52;0.52;;;19.80;41.90;;;23.45;28.09;99697.44;4880733;29;20048;-75
2021/12/05 05:05:28;;;;;;;0.50;0.50;;;19.80;41.90;;;23.42;28.21;99701.25;4895755;29;20064;-75
2021/12/05 05:07:54;;;;;;;0.55;0.55;;;19.80;41.90;;;23.43;27.97;99702.91;4878624;29;20064;-75
2021/12/05 05:10:27;;;;;;;0.60;0.60;;;19.80;41.90;;;23.43;27.99;99710.06;4880385;29;20052;-75
2021/12/05 05:12:54;;;;;;;0.60;0.60;;;19.80;41.90;;;23.44;28.12;99711.78;4880623;29;20053;-75
2021/12/05 05:15:26;;;;;;;0.50;0.50;;;19.80;41.90;;;23.44;28.10;99711.78;4879917;29;20052;-75
2021/12/05 05:17:56;;;;;;;0.40;0.40;;;19.80;41.90;;;23.43;28.07;99708.25;4880625;29;20048;-75
2021/12/05 05:20:39;;;;;;;0.60;0.60;;;19.80;41.90;;;23.43;28.14;99715.41;4895662;29;20397;-75
2021/12/05 05:23:20;;;;;;;0.60;0.60;;;19.80;41.90;;;23.43;27.78;99712.75;4882302;29;20160;-75
2021/12/05 05:26:29;;;;;;;0.50;0.50;;;19.80;41.90;;;23.45;28.17;99724.94;4880888;29;20044;-75
2021/12/05 05:42:31;;;;;;;0.50;0.50;;;19.80;41.90;;;23.45;28.22;99743.63;4882784;29;20063;-75
2021/12/05 05:52:15;;;;;;;0.50;0.50;;;19.80;41.90;;;23.42;27.92;99764.41;4883032;29;20483;-75
2021/12/05 05:54:45;;;;;;;0.70;0.70;;;19.80;41.90;;;23.45;27.97;99777.47;4882996;29;20055;-75
2021/12/05 05:59:57;;;;;;;0.60;0.60;;;19.80;41.80;;;23.44;28.08;99765.13;4884497;29;20048;-75
2021/12/05 06:05:09;;;;;;;0.50;0.50;;;19.80;41.80;;;23.42;28.00;99780.41;4869563;29;20086;-75
2021/12/05 06:07:41;;;;;;;0.60;0.60;;;19.80;41.90;;;23.42;28.04;99783.06;4882670;29;20104;-75
2021/12/05 06:10:10;;;;;;;0.55;0.55;;;19.80;41.90;;;23.42;27.95;99777.72;4883537;29;20054;-75
2021/12/05 06:12:38;;;;;;;0.40;0.40;;;19.80;41.90;;;23.42;28.15;99773.25;4899483;29;20088;-75
2021/12/05 06:15:07;;;;;;;0.68;0.55;;;19.80;41.90;;;23.44;27.94;99773.13;4882421;29;20112;-75
2021/12/05 06:17:33;;;;;;;0.70;0.70;;;19.80;41.80;;;23.44;28.18;99784.63;4899146;29;20393;-75
2021/12/05 06:20:00;;;;;;;0.60;0.60;;;19.80;41.80;;;23.42;28.06;99783.06;4898125;29;20477;-75
2021/12/05 06:22:26;;;;;;;0.50;0.50;;;19.80;41.80;;;23.40;27.92;99780.53;4880755;29;20064;-75
2021/12/05 06:24:52;;;;;;;0.50;0.50;;;19.80;41.80;;;23.45;28.03;99790.81;4899342;29;20442;-76
2021/12/05 06:27:18;;;;;;;0.40;0.40;;;19.80;41.90;;;23.41;28.13;99792.06;4882409;29;20148;-75
2021/12/05 06:29:52;;;;;;;0.43;0.43;;;19.80;41.80;;;23.43;28.10;99790.09;4882048;29;20467;-75
2021/12/05 06:32:40;;;;;;;0.50;0.50;;;19.80;41.80;;;23.42;28.17;99791.06;4883736;29;20048;-75
2021/12/05 06:38:08;;;;;;;0.68;0.60;;;19.80;41.90;;;23.45;27.81;99794.31;4884890;29;20052;-76
2021/12/05 06:46:18;;;;;;;0.70;0.70;;;19.80;41.90;;;23.41;28.14;99810.75;4899080;29;20084;-75
2021/12/05 06:48:45;;;;;;;0.50;0.50;;;19.80;41.90;;;23.44;28.14;99826.47;4883378;29;20051;-75
2021/12/05 06:51:13;;;;;;;0.43;0.43;;;19.80;41.80;;;23.43;28.14;99816.78;4865575;29;20044;-75
2021/12/05 06:53:40;;;;;;;0.60;0.60;;;19.80;41.80;;;23.43;28.20;99825.63;4866577;29;20056;-75
2021/12/05 06:56:07;;;;;;;0.50;0.50;;;19.80;41.80;;;23.42;27.97;99833.75;4882038;29;20045;-75
2021/12/05 06:58:34;;;;;;;0.70;0.60;;;19.80;41.80;;;23.41;28.24;99832.09;4881829;29;20057;-75
2021/12/05 07:01:04;;;;;;;0.45;0.45;;;19.80;41.80;;;23.40;28.07;99831.22;4882299;29;20040;-75
2021/12/05 07:03:30;;;;;;;0.50;0.50;;;19.80;41.90;;;23.41;28.17;99840.91;4897550;29;20053;-75
2021/12/05 07:06:01;;;;;;;0.68;0.68;;;19.80;41.80;;;23.43;28.15;99862.13;4881899;29;20055;-75
2021/12/05 07:08:31;;;;;;;0.70;0.70;;;19.80;41.80;;;23.43;28.17;99859.47;4882617;29;20135;-75
2021/12/05 07:14:32;;;;;;;0.45;0.45;;;19.80;41.80;;;23.44;28.09;99869.16;4883984;29;20044;-75
2021/12/05 07:16:49;;;;;;;0.52;0.52;;;19.80;41.80;;;23.45;28.01;99873.50;4877581;29;20057;-75
2021/12/05 07:21:56;;;;;;;0.73;0.68;;;19.80;41.80;;;23.45;28.13;99882.34;4883000;29;20104;-75
2021/12/05 07:40:20;;;;;;;0.57;0.57;;;19.80;41.80;;;23.43;27.95;99892.31;4891900;29;20504;-75
2021/12/05 07:40:54;;;;;;;0.50;0.50;;;19.80;41.80;;;23.40;28.21;99897.06;4884000;29;20049;-75
2021/12/05 07:43:20;;;;;;;0.40;0.40;;;19.80;41.80;;;23.41;28.13;99904.13;4881474;29;20105;-75
2021/12/05 07:45:56;;;;;;;0.70;0.70;;;19.80;41.90;;;23.37;28.12;99900.88;4881458;29;20052;-75
2021/12/05 07:48:31;;;;;;;0.60;0.60;;;19.80;41.90;;;23.40;28.09;99916.59;4866976;29;20059;-75
2021/12/05 07:56:18;;;;;;;0.40;0.40;;;19.80;41.90;;;23.42;27.98;99929.78;4869154;29;20057;-75
2021/12/05 07:58:59;;;;;;;0.55;0.52;;;19.80;41.80;;;23.40;28.10;99934.41;4881101;29;20061;-75
2021/12/05 08:15:16;;;;;;;0.60;0.60;;;19.80;41.80;;;23.42;28.00;99961.81;4883410;29;20513;-75
2021/12/05 08:17:51;;;;;;;0.57;0.57;;;19.80;41.80;;;23.41;28.14;99968.97;4897462;29;20502;-75
2021/12/05 08:20:23;;;;;;;0.52;0.52;;;19.80;41.80;;;23.42;27.95;99978.69;4866416;29;20078;-75
2021/12/05 08:22:50;;;;;;;0.50;0.50;;;19.80;41.80;;;23.42;28.15;99981.34;4865655;29;20087;-75
2021/12/05 08:25:20;;;;;;;0.60;0.60;;;19.80;41.80;;;23.41;28.08;99978.81;4880734;29;20138;-75
2021/12/05 08:27:51;;;;;;;0.50;0.50;;;19.80;41.80;;;23.38;28.17;99979.06;4865476;29;20052;-75
2021/12/05 08:30:28;;;;;;;0.55;0.52;;;19.80;41.80;;;23.42;28.01;99988.47;4866324;29;20390;-75
2021/12/05 08:36:09;;;;;;;0.43;0.43;;;19.80;41.80;;;23.42;28.27;100002.69;4883551;29;20052;-75
2021/12/05 08:44:39;;;;;;;0.50;0.50;;;19.80;41.70;;;23.41;28.10;100017.00;4897377;29;20061;-75
2021/12/05 09:31:00;;;;;;;0.60;0.60;;;19.80;42.30;;;23.41;28.04;100090.84;4884437;29;20123;-75
2021/12/05 10:06:45;;;;;;;0.65;0.65;;;19.80;41.70;;;23.45;27.91;100137.63;4885574;29;20052;-75
2021/12/05 10:06:52;;;;;;;0.60;0.60;;;19.80;41.70;;;23.44;27.94;100139.47;4887856;29;20481;-75
2021/12/05 10:26:23;;;;;;;0.60;0.60;;;19.80;41.60;;;23.41;28.13;100150.38;4882531;29;20088;-75
2021/12/05 10:35:35;;;;;;;0.50;0.40;;;19.90;41.60;;;23.44;28.20;100159.97;4869155;29;20880;-75
2021/12/05 10:38:06;;;;;;;0.57;0.57;;;19.90;41.60;;;23.43;27.91;100156.44;4885490;29;20049;-76
2021/12/05 10:40:41;;;;;;;0.57;0.50;;;19.90;41.70;;;23.47;27.88;100170.34;4882503;29;20051;-76
2021/12/05 10:43:18;;;;;;;0.40;0.40;;;19.90;41.60;;;23.47;28.22;100168.56;4899505;29;20048;-75
2021/12/05 10:45:58;;;;;;;0.60;0.60;;;19.90;41.60;;;23.42;27.99;100170.75;4882069;29;20481;-75
2021/12/05 10:48:35;;;;;;;0.60;0.60;;;19.90;41.60;;;23.47;27.93;100170.34;4898957;29;20064;-76
2021/12/05 10:51:06;;;;;;;0.47;0.47;;;19.90;41.60;;;23.48;27.95;100177.41;4891430;29;20048;-76
2021/12/05 10:53:36;;;;;;;0.60;0.60;;;19.90;41.60;;;23.51;27.89;100181.66;4882121;29;20057;-76
2021/12/05 10:56:24;;;;;;;0.63;0.63;;;19.90;41.60;;;23.52;28.04;100186.00;4898987;29;20048;-75
2021/12/05 10:59:00;;;;;;;0.60;0.60;;;19.90;41.50;;;23.51;27.89;100189.66;4881953;29;20049;-75
2021/12/05 11:01:44;;;;;;;0.63;0.63;;;19.90;41.50;;;23.52;28.11;100191.31;4899186;29;20143;-75
2021/12/05 11:04:28;;;;;;;0.57;0.50;;;19.90;41.50;;;23.48;27.85;100196.91;4881751;29;20064;-76
2021/12/05 11:06:58;;;;;;;0.50;0.50;;;19.90;41.50;;;23.52;27.94;100194.00;4881844;29;20084;-75
2021/12/05 11:09:40;;;;;;;0.60;0.60;;;19.90;41.50;;;23.47;27.82;100192.56;4881779;29;20104;-75
2021/12/05 11:12:14;;;;;;;0.50;0.50;;;19.90;41.50;;;23.52;27.96;100204.66;4851054;29;20056;-75
2021/12/05 11:14:49;;;;;;;0.50;0.50;;;19.90;41.50;;;23.49;27.95;100201.28;4881978;29;20076;-76
2021/12/05 11:17:28;;;;;;;0.70;0.70;;;19.90;41.50;;;23.48;28.07;100204.91;4881641;29;20075;-75
2021/12/05 11:20:04;;;;;;;0.50;0.50;;;19.90;41.50;;;23.52;27.86;100218.84;4881793;29;20081;-75
2021/12/05 11:22:55;;;;;;;0.60;0.60;;;19.90;41.50;;;23.53;27.87;100211.72;4882232;29;20053;-75
2021/12/05 11:25:25;;;;;;;;;;;19.90;41.50;;;23.64;27.75;100215.19;4881579;29;20609;-76
2021/12/05 11:28:02;;;;;;;0.65;0.65;;;19.90;41.50;;;23.56;27.87;100216.81;4882028;29;19919;-75
2021/12/05 11:30:35;;;;;;;0.50;0.50;;;20.00;41.60;;;23.56;28.00;100222.97;4881687;29;20045;-75
2021/12/05 11:33:07;;;;;;;0.60;0.60;;;19.90;41.50;;;23.53;27.87;100219.72;4866155;29;20056;-75
2021/12/05 11:35:37;;;;;;;0.60;0.60;;;19.90;41.50;;;23.54;27.97;100229.41;4881787;29;20108;-75
2021/12/05 11:38:21;;;;;;;0.50;0.50;;;19.90;41.60;;;23.52;27.98;100226.84;4880807;29;20057;-75
2021/12/05 11:41:06;;;;;;;0.70;0.70;;;19.90;41.60;;;23.52;27.80;100232.19;4898381;29;20060;-75
2021/12/05 11:43:48;;;;;;;0.60;0.60;;;19.90;41.60;;;23.51;27.97;100229.69;4898223;29;20504;-76
2021/12/05 11:46:28;;;;;;;0.60;0.60;;;19.90;41.60;;;23.44;27.98;100216.00;4881307;29;20501;-75
2021/12/05 11:48:59;;;;;;;0.60;0.60;;;19.90;41.60;;;23.48;28.01;100223.59;4881736;29;20067;-75
2021/12/05 11:51:33;;;;;;;0.55;0.55;;;19.90;41.60;;;23.51;27.93;100238.53;4898237;29;20056;-75
2021/12/05 11:54:26;;;;;;;0.60;0.60;;;19.90;41.60;;;23.48;27.83;100225.44;4881187;29;20063;-75
2021/12/05 11:57:03;;;;;;;0.50;0.50;;;19.90;41.50;;;23.52;28.14;100228.69;4881257;29;20412;-76
2021/12/05 11:59:45;;;;;;;0.50;0.50;;;19.90;41.50;;;23.45;28.00;100223.00;4897983;29;20075;-75
2021/12/05 12:02:24;;;;;;;0.65;0.65;;;19.90;41.50;;;23.49;28.20;100238.66;4895565;29;20147;-76
2021/12/05 12:04:55;;;;;;;0.55;0.55;;;19.90;41.50;;;23.52;28.01;100240.19;4897966;29;20417;-75
2021/12/05 12:07:37;;;;;;;;;;;19.90;41.50;;;23.56;27.84;100228.31;4898577;29;20044;-75
2021/12/05 12:10:31;;;;;;;0.50;0.50;;;19.90;42.10;;;23.55;27.83;100244.44;4881292;29;20268;-75
2021/12/05 12:13:13;;;;;;;0.60;0.60;;;19.90;41.50;;;23.50;28.02;100244.81;4881386;29;20500;-75
2021/12/05 12:15:42;;;;;;;0.60;0.60;;;19.90;41.50;;;23.48;27.84;100238.78;4897956;29;20048;-76
2021/12/05 12:18:24;;;;;;;0.60;0.60;;;19.90;41.60;;;23.47;27.85;100234.41;4881107;29;20048;-75
2021/12/05 12:20:52;;;;;;;0.75;0.50;;;19.90;41.50;;;23.50;28.00;100244.81;4882468;29;20096;-75
2021/12/05 12:23:20;;;;;;;0.70;0.70;;;19.90;41.50;;;23.50;27.82;100244.81;4881036;29;20495;-76
2021/12/05 12:25:51;;;;;;;0.70;0.70;;;19.90;41.50;;;23.51;27.62;100248.34;4880786;29;20049;-76
2021/12/05 12:28:18;;;;;;;0.50;0.50;;;19.90;41.60;;;23.52;28.07;100242.03;4881256;29;20057;-75
2021/12/05 12:30:52;;;;;;;0.63;0.63;;;19.90;41.60;;;23.46;27.82;100246.91;4881072;29;20052;-75
2021/12/05 12:33:28;;;;;;;0.70;0.70;;;19.90;41.60;;;23.47;27.90;100247.72;4880976;29;20072;-75
2021/12/05 12:35:55;;;;;;;0.60;0.60;;;19.90;41.60;;;23.49;27.91;100248.47;4898121;29;20136;-75
2021/12/05 12:38:28;;;;;;;0.60;0.60;;;19.90;41.60;;;23.47;28.15;100242.41;4897431;29;20184;-75
2021/12/05 12:40:58;;;;;;;0.70;0.70;;;19.90;41.60;;;23.49;27.96;100257.31;4897814;29;20049;-75
2021/12/05 12:43:52;;;;;;;0.60;0.60;;;19.90;41.60;;;23.47;27.81;100256.59;4880932;29;20185;-75
2021/12/05 12:46:29;;;;;;;0.85;0.85;;;19.90;41.60;;;23.49;27.84;100265.31;4880457;29;20084;-75
2021/12/05 12:49:00;;;;;;;0.60;0.60;;;19.90;41.60;;;23.48;27.92;100260.94;4881309;29;20056;-75
2021/12/05 12:51:36;;;;;;;0.70;0.70;;;19.90;41.60;;;23.48;27.89;100273.47;4883700;29;20072;-75
2021/12/05 12:54:15;;;;;;;0.63;0.63;;;19.80;41.50;;;23.48;28.03;100279.63;4883901;29;20059;-75
2021/12/05 12:56:59;;;;;;;0.77;0.70;;;19.90;41.60;;;23.48;28.20;100286.78;4883880;29;20053;-75
2021/12/05 12:59:30;;;;;;;0.63;0.60;;;19.80;41.60;;;23.47;28.05;100280.63;4868158;29;20556;-75
2021/12/05 13:10:29;;;;;;;0.50;0.50;;;19.80;41.50;;;23.42;27.89;100281.94;4886642;29;20076;-75
2021/12/05 13:13:23;;;;;;;0.70;0.70;;;19.80;41.50;;;23.45;28.01;100293.22;4900543;29;20057;-75
2021/12/05 13:15:53;;;;;;;0.50;0.50;;;19.80;41.50;;;23.45;27.70;100289.72;4883591;29;20388;-75
2021/12/05 13:18:35;;;;;;;0.70;0.70;;;19.80;41.50;;;23.45;27.77;100297.72;4883379;29;20044;-75
2021/12/05 13:21:10;;;;;;;0.63;0.63;;;19.80;41.50;;;23.43;28.07;100291.66;4883537;29;20040;-75
2021/12/05 13:23:50;;;;;;;0.70;0.70;;;19.80;41.60;;;23.43;28.04;100302.34;4883785;29;20100;-76
2021/12/05 13:26:34;;;;;;;0.80;0.80;;;19.80;41.50;;;23.46;27.77;100307.44;4868224;29;20105;-75
2021/12/05 13:29:22;;;;;;;0.70;0.65;;;19.80;41.60;;;23.43;27.84;100310.34;4892709;29;20127;-75
2021/12/05 13:32:03;;;;;;;0.70;0.70;;;19.80;41.60;;;23.43;28.04;100321.84;4900237;29;20052;-75
2021/12/05 13:34:54;;;;;;;0.80;0.80;;;19.80;41.60;;;23.43;27.99;100318.34;4883892;29;20052;-75
2021/12/05 13:37:22;;;;;;;0.60;0.60;;;19.80;41.60;;;23.43;28.07;100324.50;4883146;29;20454;-75
2021/12/05 13:40:06;;;;;;;0.82;0.70;;;19.80;41.60;;;23.45;27.93;100333.25;4900026;29;20045;-75
2021/12/05 13:42:35;;;;;;;0.70;0.70;;;19.80;41.60;;;23.45;27.86;100327.06;4899997;29;20060;-75
2021/12/05 13:45:04;;;;;;;0.70;0.70;;;19.80;41.50;;;23.44;28.13;100331.56;4882871;29;20147;-75
2021/12/05 13:47:32;;;;;;;0.90;0.90;;;19.80;41.60;;;23.45;27.94;100324.41;4882747;29;20048;-75
2021/12/05 13:50:18;;;;;;;0.80;0.80;;;19.80;41.60;;;23.44;28.10;100333.38;4900059;29;20390;-75
2021/12/05 13:53:02;;;;;;;0.60;0.60;;;19.80;41.50;;;23.45;28.04;100335.91;4899306;29;20102;-75
2021/12/05 13:55:44;;;;;;;0.70;0.70;;;19.80;41.60;;;23.41;27.92;100337.13;4900154;29;20056;-75
2021/12/05 13:58:28;;;;;;;0.82;0.82;;;19.80;41.50;;;23.41;27.96;100339.81;4899853;29;20197;-75
2021/12/05 14:01:01;;;;;;;0.85;0.70;;;19.80;41.60;;;23.42;27.98;100340.66;4882498;29;20080;-76
2021/12/05 14:04:05;;;;;;;0.80;0.80;;;19.80;41.60;;;23.45;28.07;100351.91;4899850;29;20052;-75
2021/12/05 14:06:53;;;;;;;1.02;0.70;;;19.80;42.10;;;23.40;27.78;100353.28;4882974;29;20052;-75
2021/12/05 14:09:43;;;;;;;0.80;0.80;;;19.80;41.50;;;23.43;27.77;100369.88;4899382;29;20135;-75
2021/12/05 14:12:19;;;;;;;0.90;0.90;;;19.80;41.50;;;23.41;27.90;100363.81;4882812;29;20055;-75
2021/12/05 14:14:46;;;;;;;1.00;1.00;;;19.80;41.60;;;23.44;28.12;100371.59;4897761;29;20075;-75
2021/12/05 14:17:20;;;;;;;0.85;0.77;;;19.80;41.50;;;23.40;28.08;100371.94;4899439;29;20048;-75
2021/12/05 14:19:58;;;;;;;0.82;0.70;;;19.80;41.60;;;23.40;28.07;100380.78;4882678;29;20489;-75
2021/12/05 14:22:29;;;;;;;0.90;0.82;;;19.80;41.60;;;23.44;27.90;100386.75;4899438;29;20060;-75
2021/12/05 14:24:59;;;;;;;0.70;0.70;;;19.80;41.60;;;23.45;27.90;100391.94;4882725;29;20420;-75
2021/12/05 14:27:32;;;;;;;0.70;0.70;;;19.80;41.60;;;23.38;27.91;100387.22;4882851;29;20557;-75
2021/12/05 14:29:59;;;;;;;0.80;0.80;;;19.80;41.60;;;23.43;27.82;100398.38;4882545;29;20930;-75
2021/12/05 14:32:33;;;;;;;0.75;0.75;;;19.80;41.60;;;23.40;27.96;100402.13;4882278;29;20390;-75
2021/12/05 14:35:22;;;;;;;0.98;0.90;;;19.80;41.60;;;23.42;27.82;100416.22;4867221;29;20063;-75
2021/12/05 14:37:51;;;;;;;0.80;0.80;;;19.80;41.60;;;23.37;27.95;100407.75;4882230;29;20056;-75
2021/12/05 14:40:27;;;;;;;0.98;0.88;;;19.80;41.60;;;23.41;27.86;100421.69;4882504;29;20049;-76
2021/12/05 14:42:53;;;;;;;1.58;1.10;;;19.80;41.60;;;23.42;27.95;100434.91;4882993;29;20166;-75
2021/12/05 14:45:24;;;;;;;1.25;0.95;;;19.80;41.60;;;23.42;28.05;100434.03;4899059;29;20226;-75
2021/12/05 14:47:53;;;;;;;0.90;0.90;;;19.80;41.60;;;23.40;27.82;100436.81;4882175;29;20124;-76
2021/12/05 14:50:30;;;;;;;0.80;0.80;;;19.80;41.60;;;23.43;27.87;100443.75;4882266;29;20128;-75
2021/12/05 14:53:00;;;;;;;0.85;0.85;;;19.80;41.60;;;23.42;27.93;100445.56;4866804;29;20104;-75
2021/12/05 14:55:32;;;;;;;0.80;0.80;;;19.80;41.60;;;23.43;27.73;100449.06;4882144;29;20068;-75
2021/12/05 14:58:05;;;;;;;0.90;0.90;;;19.80;41.60;;;23.38;27.91;100445.94;4882324;29;20109;-75
2021/12/05 15:00:34;;;;;;;1.10;1.00;;;19.80;41.60;;;23.39;27.95;100450.28;4882068;29;20512;-75
2021/12/05 15:03:09;;;;;;;0.98;0.80;;;19.70;41.60;;;23.38;27.84;100452.09;4866414;29;20049;-75
2021/12/05 15:05:37;;;;;;;0.70;0.70;;;19.80;41.60;;;23.42;27.77;100456.25;4882056;29;20052;-75
2021/12/05 15:08:13;;;;;;;0.70;0.70;;;19.80;41.60;;;23.37;27.98;100453.09;4881948;29;20080;-75
2021/12/05 15:10:42;;;;;;;0.98;0.90;;;19.70;41.60;;;23.41;27.90;100465.22;4866813;29;20049;-76
2021/12/05 15:13:09;;;;;;;1.00;0.90;;;19.80;41.60;;;23.39;28.04;100452.94;4880940;29;20117;-75
2021/12/05 15:15:36;;;;;;;0.98;0.88;;;19.80;41.60;;;23.40;28.03;100463.50;4866506;29;20171;-75
2021/12/05 15:18:03;;;;;;;0.98;0.90;;;19.80;41.60;;;23.40;27.93;100471.50;4866345;29;20493;-75